createdAt,value
2018-10-12T00:00:25.571Z,0
2018-10-12T00:01:25.825Z,0
2018-10-12T00:02:27.456Z,0
2018-10-12T00:03:28.562Z,0
2018-10-12T00:04:28.919Z,0
2018-10-12T00:05:30.824Z,0
2018-10-12T00:06:30.897Z,0
2018-10-12T00:07:31.412Z,0
2018-10-12T00:08:32.216Z,0
2018-10-12T00:09:33.292Z,0
2018-10-12T00:10:34.641Z,0
2018-10-12T00:11:35.166Z,0
2018-10-12T00:12:36.242Z,0
2018-10-12T00:13:37.040Z,0
2018-10-12T00:14:37.830Z,0
2018-10-12T00:15:38.908Z,0
2018-10-12T00:16:39.142Z,0
2018-10-12T00:17:40.940Z,0
2018-10-12T00:18:41.187Z,0
2018-10-12T00:19:42.986Z,0
2018-10-12T00:20:43.502Z,0
2018-10-12T00:21:44.753Z,0
2018-10-12T00:22:45.549Z,0
2018-10-12T00:23:46.904Z,0
2018-10-12T00:24:47.255Z,0
2018-10-12T00:25:48.051Z,0
2018-10-12T00:26:48.574Z,0
2018-10-12T00:27:49.370Z,0
2018-10-12T00:28:49.444Z,0
2018-10-12T00:29:50.518Z,0
2018-10-12T00:30:52.144Z,0
2018-10-12T00:31:52.117Z,0
2018-10-12T00:32:53.191Z,0
2018-10-12T00:33:53.706Z,0
2018-10-12T00:34:55.502Z,0
2018-10-12T00:35:56.021Z,0
2018-10-12T00:36:56.542Z,0
2018-10-12T00:37:57.063Z,0
2018-10-12T00:38:58.578Z,0
2018-10-12T00:39:59.373Z,0
2018-10-12T00:41:00.173Z,0
2018-10-12T00:42:01.703Z,0
2018-10-12T00:43:02.342Z,0
2018-10-12T00:44:02.694Z,0
2018-10-12T00:45:04.051Z,0
2018-10-12T00:46:03.569Z,0
2018-10-12T00:47:04.088Z,0
2018-10-12T00:48:04.886Z,0
2018-10-12T00:49:05.681Z,0
2018-10-12T00:50:06.309Z,0
2018-10-12T00:51:06.660Z,0
2018-10-12T00:52:08.022Z,0
2018-10-12T00:53:08.687Z,0
2018-10-12T00:54:08.762Z,0
2018-10-12T00:55:09.556Z,0
2018-10-12T00:56:10.354Z,0
2018-10-12T00:57:12.430Z,0
2018-10-12T00:58:12.945Z,0
2018-10-12T00:59:15.017Z,0
2018-10-12T01:00:15.816Z,0
2018-10-12T01:01:16.611Z,0
2018-10-12T01:02:17.587Z,0
2018-10-12T01:03:19.115Z,0
2018-10-12T01:04:19.908Z,0
2018-10-12T01:05:21.024Z,0
2018-10-12T01:06:21.098Z,0
2018-10-12T01:07:22.172Z,0
2018-10-12T01:08:22.689Z,0
2018-10-12T01:09:23.486Z,0
2018-10-12T01:10:24.601Z,0
2018-10-12T01:11:25.673Z,0
2018-10-12T01:12:25.945Z,0
2018-10-12T01:13:27.303Z,0
2018-10-12T01:14:27.824Z,0
2018-10-12T01:15:28.620Z,0
2018-10-12T01:16:29.702Z,0
2018-10-12T01:17:29.943Z,0
2018-10-12T01:18:31.573Z,0
2018-10-12T01:19:31.812Z,0
2018-10-12T01:20:33.888Z,0
2018-10-12T01:21:34.241Z,0
2018-10-12T01:22:34.791Z,0
2018-10-12T01:23:35.586Z,0
2018-10-12T01:24:36.382Z,0
2018-10-12T01:25:37.732Z,0
2018-10-12T01:26:37.247Z,0
2018-10-12T01:27:38.045Z,0
2018-10-12T01:28:38.562Z,0
2018-10-12T01:29:39.367Z,0
2018-10-12T01:30:41.442Z,0
2018-10-12T01:31:40.959Z,0
2018-10-12T01:32:42.209Z,0
2018-10-12T01:33:43.303Z,0
2018-10-12T01:34:43.374Z,0
2018-10-12T01:35:43.890Z,0
2018-10-12T01:36:44.964Z,0
2018-10-12T01:37:45.320Z,0
2018-10-12T01:38:45.948Z,0
2018-10-12T01:39:46.465Z,0
2018-10-12T01:40:47.264Z,0
2018-10-12T01:41:48.062Z,0
2018-10-12T01:42:50.170Z,0
2018-10-12T01:43:50.246Z,0
2018-10-12T01:44:51.880Z,0
2018-10-12T01:45:52.673Z,0
2018-10-12T01:46:54.025Z,0
2018-10-12T01:47:53.853Z,0
2018-10-12T01:48:54.646Z,0
2018-10-12T01:49:55.997Z,0
2018-10-12T01:50:56.797Z,0
2018-10-12T01:51:57.310Z,0
2018-10-12T01:52:58.115Z,0
2018-10-12T01:53:58.914Z,0
2018-10-12T01:54:59.434Z,0
2018-10-12T01:56:01.076Z,0
2018-10-12T01:57:01.594Z,0
2018-10-12T01:58:02.392Z,0
2018-10-12T01:59:02.908Z,0
2018-10-12T02:00:04.546Z,0
2018-10-12T02:01:04.893Z,0
2018-10-12T02:02:04.966Z,0
2018-10-12T02:03:07.049Z,0
2018-10-12T02:04:07.847Z,0
2018-10-12T02:05:08.649Z,0
2018-10-12T02:06:09.445Z,0
2018-10-12T02:07:10.805Z,0
2018-10-12T02:08:11.879Z,0
2018-10-12T02:09:12.679Z,0
2018-10-12T02:10:13.477Z,0
2018-10-12T02:11:14.992Z,0
2018-10-12T02:12:16.343Z,0
2018-10-12T02:13:17.316Z,0
2018-10-12T02:14:17.840Z,0
2018-10-12T02:15:19.192Z,0
2018-10-12T02:16:19.820Z,0
2018-10-12T02:17:20.896Z,0
2018-10-12T02:18:21.969Z,0
2018-10-12T02:19:23.044Z,0
2018-10-12T02:20:23.564Z,0
2018-10-12T02:21:24.647Z,0
2018-10-12T02:22:25.725Z,0
2018-10-12T02:23:25.974Z,0
2018-10-12T02:24:27.165Z,0
2018-10-12T02:25:28.110Z,0
2018-10-12T02:26:27.908Z,0
2018-10-12T02:27:28.704Z,0
2018-10-12T02:28:29.778Z,0
2018-10-12T02:29:29.579Z,0
2018-10-12T02:30:31.486Z,0
2018-10-12T02:31:32.392Z,0
2018-10-12T02:32:33.025Z,0
2018-10-12T02:33:33.279Z,0
2018-10-12T02:34:34.351Z,0
2018-10-12T02:35:35.149Z,0
2018-10-12T02:36:36.500Z,0
2018-10-12T02:37:37.573Z,0
2018-10-12T02:38:37.925Z,0
2018-10-12T02:39:39.661Z,0
2018-10-12T02:40:39.741Z,0
2018-10-12T02:41:40.538Z,0
2018-10-12T02:42:42.007Z,0
2018-10-12T02:43:42.254Z,0
2018-10-12T02:44:42.769Z,0
2018-10-12T02:45:43.567Z,0
2018-10-12T02:46:44.200Z,0
2018-10-12T02:47:44.825Z,0
2018-10-12T02:48:44.618Z,0
2018-10-12T02:49:46.416Z,0
2018-10-12T02:50:48.043Z,0
2018-10-12T02:51:48.839Z,0
2018-10-12T02:52:49.676Z,0
2018-10-12T02:53:50.507Z,0
2018-10-12T02:54:51.587Z,0
2018-10-12T02:55:52.661Z,0
2018-10-12T02:56:54.008Z,0
2018-10-12T02:57:54.091Z,0
2018-10-12T02:58:54.885Z,0
2018-10-12T02:59:55.959Z,0
2018-10-12T03:00:56.755Z,0
2018-10-12T03:01:58.659Z,0
2018-10-12T03:02:59.181Z,0
2018-10-12T03:04:00.293Z,0
2018-10-12T03:05:00.093Z,0
2018-10-12T03:06:00.883Z,0
2018-10-12T03:07:01.687Z,0
2018-10-12T03:08:03.322Z,0
2018-10-12T03:09:03.573Z,0
2018-10-12T03:10:04.653Z,0
2018-10-12T03:11:05.722Z,0
2018-10-12T03:12:06.798Z,0
2018-10-12T03:13:07.982Z,0
2018-10-12T03:14:08.094Z,0
2018-10-12T03:15:08.446Z,0
2018-10-12T03:16:10.353Z,0
2018-10-12T03:17:10.708Z,0
2018-10-12T03:18:10.781Z,0
2018-10-12T03:19:11.134Z,0
2018-10-12T03:20:11.210Z,0
2018-10-12T03:21:12.009Z,0
2018-10-12T03:22:12.806Z,0
2018-10-12T03:23:13.152Z,0
2018-10-12T03:24:14.396Z,0
2018-10-12T03:25:15.765Z,0
2018-10-12T03:26:15.835Z,0
2018-10-12T03:27:17.189Z,0
2018-10-12T03:28:18.832Z,0
2018-10-12T03:29:18.354Z,0
2018-10-12T03:30:20.295Z,0
2018-10-12T03:31:21.764Z,0
2018-10-12T03:32:22.667Z,0
2018-10-12T03:33:22.752Z,0
2018-10-12T03:34:23.842Z,0
2018-10-12T03:35:25.472Z,0
2018-10-12T03:36:26.104Z,0
2018-10-12T03:37:27.387Z,0
2018-10-12T03:38:28.019Z,0
2018-10-12T03:39:29.099Z,0
2018-10-12T03:40:30.175Z,0
2018-10-12T03:41:30.988Z,0
2018-10-12T03:42:31.208Z,0
2018-10-12T03:43:33.003Z,0
2018-10-12T03:44:33.531Z,0
2018-10-12T03:45:34.940Z,0
2018-10-12T03:46:35.291Z,0
2018-10-12T03:47:36.643Z,0
2018-10-12T03:48:37.717Z,0
2018-10-12T03:49:38.078Z,0
2018-10-12T03:50:38.873Z,0
2018-10-12T03:51:39.947Z,0
2018-10-12T03:52:40.463Z,0
2018-10-12T03:53:40.979Z,0
2018-10-12T03:54:42.062Z,0
2018-10-12T03:55:42.419Z,0
2018-10-12T03:56:42.766Z,0
2018-10-12T03:57:43.839Z,0
2018-10-12T03:58:44.641Z,0
2018-10-12T03:59:45.716Z,0
2018-10-12T04:00:46.789Z,0
2018-10-12T04:01:48.142Z,0
2018-10-12T04:02:50.394Z,0
2018-10-12T04:03:50.354Z,0
2018-10-12T04:04:51.059Z,0
2018-10-12T04:05:52.414Z,0
2018-10-12T04:06:53.208Z,0
2018-10-12T04:07:53.561Z,0
2018-10-12T04:08:54.355Z,0
2018-10-12T04:09:55.708Z,0
2018-10-12T04:10:56.623Z,0
2018-10-12T04:11:57.142Z,0
2018-10-12T04:12:57.947Z,0
2018-10-12T04:13:59.027Z,0
2018-10-12T04:15:00.138Z,0
2018-10-12T04:16:01.215Z,0
2018-10-12T04:17:02.847Z,0
2018-10-12T04:18:03.756Z,0
2018-10-12T04:19:04.551Z,0
2018-10-12T04:20:05.353Z,0
2018-10-12T04:21:05.871Z,0
2018-10-12T04:22:06.953Z,0
2018-10-12T04:23:07.478Z,0
2018-10-12T04:24:08.541Z,0
2018-10-12T04:25:09.354Z,0
2018-10-12T04:26:10.435Z,0
2018-10-12T04:27:11.532Z,0
2018-10-12T04:28:12.049Z,0
2018-10-12T04:29:13.121Z,0
2018-10-12T04:30:13.914Z,0
2018-10-12T04:31:14.262Z,0
2018-10-12T04:32:15.347Z,0
2018-10-12T04:33:16.143Z,0
2018-10-12T04:34:16.934Z,0
2018-10-12T04:35:02.320Z,0
2018-10-12T04:36:02.610Z,0
2018-10-12T04:37:03.411Z,0
2018-10-12T04:38:04.033Z,0
2018-10-12T04:39:05.108Z,0
2018-10-12T04:40:05.623Z,0
2018-10-12T04:41:06.975Z,0
2018-10-12T04:42:07.775Z,0
2018-10-12T04:43:08.572Z,0
2018-10-12T04:44:09.095Z,0
2018-10-12T04:45:09.886Z,0
2018-10-12T04:46:10.426Z,0
2018-10-12T04:47:12.139Z,0
2018-10-12T04:48:12.289Z,0
2018-10-12T04:49:13.936Z,0
2018-10-12T04:50:14.611Z,0
2018-10-12T04:51:15.403Z,0
2018-10-12T04:52:16.484Z,0
2018-10-12T04:53:16.838Z,0
2018-10-12T04:54:18.480Z,0
2018-10-12T04:55:18.837Z,0
2018-10-12T04:56:19.397Z,0
2018-10-12T04:57:20.483Z,0
2018-10-12T04:58:21.557Z,0
2018-10-12T04:59:22.076Z,0
2018-10-12T05:00:22.870Z,0
2018-10-12T05:01:24.226Z,4
2018-10-12T05:02:25.023Z,0
2018-10-12T05:03:26.371Z,4
2018-10-12T05:04:26.181Z,4
2018-10-12T05:05:27.264Z,4
2018-10-12T05:06:27.841Z,4
2018-10-12T05:07:28.733Z,4
2018-10-12T05:08:29.774Z,4
2018-10-12T05:09:31.143Z,4
2018-10-12T05:10:31.944Z,8
2018-10-12T05:11:33.025Z,8
2018-10-12T05:12:34.100Z,12
2018-10-12T05:13:35.737Z,12
2018-10-12T05:14:36.090Z,16
2018-10-12T05:15:36.617Z,16
2018-10-12T05:16:37.145Z,20
2018-10-12T05:17:38.218Z,24
2018-10-12T05:18:38.739Z,28
2018-10-12T05:19:40.367Z,32
2018-10-12T05:20:40.162Z,36
2018-10-12T05:21:40.956Z,40
2018-10-12T05:22:42.032Z,48
2018-10-12T05:23:42.663Z,52
2018-10-12T05:24:44.583Z,60
2018-10-12T05:25:44.937Z,64
2018-10-12T05:26:46.020Z,72
2018-10-12T05:27:47.099Z,80
2018-10-12T05:28:46.897Z,88
2018-10-12T05:29:48.143Z,96
2018-10-12T05:30:49.491Z,104
2018-10-12T05:31:50.010Z,112
2018-10-12T05:32:51.361Z,120
2018-10-12T05:33:51.715Z,128
2018-10-12T05:34:52.237Z,140
2018-10-12T05:35:54.069Z,152
2018-10-12T05:36:54.470Z,160
2018-10-12T05:37:54.279Z,168
2018-10-12T05:38:54.522Z,180
2018-10-12T05:39:56.323Z,192
2018-10-12T05:40:57.120Z,204
2018-10-12T05:41:57.919Z,212
2018-10-12T05:42:59.312Z,224
2018-10-12T05:43:59.336Z,232
2018-10-12T05:44:59.976Z,248
2018-10-12T05:46:01.604Z,256
2018-10-12T05:47:01.869Z,272
2018-10-12T05:48:01.665Z,284
2018-10-12T05:49:03.074Z,300
2018-10-12T05:50:03.247Z,312
2018-10-12T05:51:04.852Z,324
2018-10-12T05:52:04.791Z,340
2018-10-12T05:53:05.074Z,352
2018-10-12T05:54:05.869Z,368
2018-10-12T05:55:06.966Z,388
2018-10-12T05:56:07.762Z,404
2018-10-12T05:57:08.359Z,428
2018-10-12T05:58:09.449Z,456
2018-10-12T05:59:10.529Z,484
2018-10-12T06:00:11.628Z,516
2018-10-12T06:01:14.509Z,548
2018-10-12T06:02:14.875Z,576
2018-10-12T06:03:15.678Z,592
2018-10-12T06:04:16.245Z,608
2018-10-12T06:05:17.684Z,628
2018-10-12T06:06:18.205Z,640
2018-10-12T06:07:20.094Z,656
2018-10-12T06:08:22.326Z,708
2018-10-12T06:09:25.111Z,732
2018-10-12T06:10:25.303Z,748
2018-10-12T06:11:25.343Z,776
2018-10-12T06:12:24.506Z,760
2018-10-12T06:13:25.304Z,760
2018-10-12T06:14:26.376Z,768
2018-10-12T06:15:28.050Z,808
2018-10-12T06:16:28.075Z,996
2018-10-12T06:17:29.359Z,1408
2018-10-12T06:18:30.691Z,1512
2018-10-12T06:19:31.541Z,1332
2018-10-12T06:20:33.240Z,988
2018-10-12T06:21:33.565Z,892
2018-10-12T06:22:34.411Z,912
2018-10-12T06:23:36.100Z,948
2018-10-12T06:24:41.624Z,1360
2018-10-12T06:24:49.287Z,1328
2018-10-12T06:25:50.821Z,1424
2018-10-12T06:26:51.906Z,1048
2018-10-12T06:27:52.677Z,2156
2018-10-12T06:28:52.832Z,1884
2018-10-12T06:29:55.808Z,1752
2018-10-12T06:30:57.374Z,2004
2018-10-12T06:31:57.066Z,1436
2018-10-12T06:32:59.786Z,1132
2018-10-12T06:33:59.429Z,1128
2018-10-12T06:35:00.786Z,1220
2018-10-12T06:36:01.595Z,1276
2018-10-12T06:37:02.256Z,1272
2018-10-12T06:38:03.512Z,1200
2018-10-12T06:39:04.609Z,1188
2018-10-12T06:40:05.136Z,1232
2018-10-12T06:41:07.783Z,1272
2018-10-12T06:42:06.913Z,1272
2018-10-12T06:43:07.716Z,1344
2018-10-12T06:44:09.444Z,1300
2018-10-12T06:45:09.868Z,1344
2018-10-12T06:46:09.590Z,1360
2018-10-12T06:47:11.394Z,1416
2018-10-12T06:48:11.918Z,1416
2018-10-12T06:49:12.993Z,1440
2018-10-12T06:50:13.799Z,1468
2018-10-12T06:51:14.767Z,1516
2018-10-12T06:52:15.869Z,1556
2018-10-12T06:53:16.737Z,1576
2018-10-12T06:54:17.093Z,1600
2018-10-12T06:55:18.178Z,1676
2018-10-12T06:56:18.431Z,8340
2018-10-12T06:57:18.954Z,9432
2018-10-12T06:58:20.483Z,3028
2018-10-12T06:59:21.862Z,4492
2018-10-12T07:00:21.668Z,16384
2018-10-12T07:01:23.043Z,17056
2018-10-12T07:02:23.843Z,4344
2018-10-12T07:03:25.603Z,4552
2018-10-12T07:04:25.253Z,5048
2018-10-12T07:05:25.819Z,6520
2018-10-12T07:06:26.486Z,4592
2018-10-12T07:07:27.006Z,5032
2018-10-12T07:08:28.251Z,8096
2018-10-12T07:09:29.608Z,12500
2018-10-12T07:10:30.410Z,11020
2018-10-12T07:11:31.215Z,6960
2018-10-12T07:12:32.016Z,4928
2018-10-12T07:13:34.176Z,4712
2018-10-12T07:14:34.610Z,3844
2018-10-12T07:15:35.413Z,3104
2018-10-12T07:16:36.415Z,3100
2018-10-12T07:17:37.220Z,3132
2018-10-12T07:18:38.327Z,3376
2018-10-12T07:19:40.139Z,3340
2018-10-12T07:20:39.702Z,4216
2018-10-12T07:21:41.506Z,6456
2018-10-12T07:22:42.345Z,3916
2018-10-12T07:23:43.979Z,7752
2018-10-12T07:24:45.103Z,22304
2018-10-12T07:25:47.032Z,20800
2018-10-12T07:26:47.069Z,27840
2018-10-12T07:27:47.873Z,40032
2018-10-12T07:28:48.675Z,35520
2018-10-12T07:29:49.209Z,30560
2018-10-12T07:30:50.653Z,32928
2018-10-12T07:31:51.044Z,25920
2018-10-12T07:32:50.851Z,18848
2018-10-12T07:33:52.569Z,16640
2018-10-12T07:34:53.558Z,18816
2018-10-12T07:35:54.175Z,17660
2018-10-12T07:36:55.655Z,13276
2018-10-12T07:37:56.555Z,9520
2018-10-12T07:38:57.082Z,8352
2018-10-12T07:39:58.282Z,5256
2018-10-12T07:40:57.815Z,4176
2018-10-12T07:41:58.898Z,4252
2018-10-12T07:42:59.704Z,3988
2018-10-12T07:44:00.789Z,3612
2018-10-12T07:45:01.595Z,3760
2018-10-12T07:46:02.400Z,3852
2018-10-12T07:47:03.951Z,3796
2018-10-12T07:48:05.680Z,4152
2018-10-12T07:49:05.216Z,4140
2018-10-12T07:50:05.858Z,4032
2018-10-12T07:51:06.939Z,4080
2018-10-12T07:52:07.374Z,3792
2018-10-12T07:53:09.989Z,3544
2018-10-12T07:54:09.956Z,4240
2018-10-12T07:55:10.947Z,6136
2018-10-12T07:56:12.047Z,5116
2018-10-12T07:57:13.640Z,4316
2018-10-12T07:58:14.226Z,8208
2018-10-12T07:59:15.351Z,14116
2018-10-12T08:00:18.057Z,10240
2018-10-12T08:01:16.833Z,19040
2018-10-12T08:02:18.667Z,23904
2018-10-12T08:03:18.535Z,18944
2018-10-12T08:04:18.782Z,7504
2018-10-12T08:05:20.880Z,5492
2018-10-12T08:06:22.359Z,6704
2018-10-12T08:07:22.577Z,3348
2018-10-12T08:08:23.120Z,3348
2018-10-12T08:09:24.463Z,6188
2018-10-12T08:10:24.769Z,21696
2018-10-12T08:11:26.135Z,16704
2018-10-12T08:12:26.764Z,7392
2018-10-12T08:13:28.350Z,3400
2018-10-12T08:14:28.775Z,3316
2018-10-12T08:15:29.575Z,3276
2018-10-12T08:16:30.126Z,3260
2018-10-12T08:17:31.106Z,3260
2018-10-12T08:18:32.221Z,3280
2018-10-12T08:19:32.745Z,4020
2018-10-12T08:20:34.802Z,3860
2018-10-12T08:21:35.190Z,4520
2018-10-12T08:22:36.555Z,5212
2018-10-12T08:23:36.438Z,5428
2018-10-12T08:24:37.517Z,4924
2018-10-12T08:25:38.715Z,4808
2018-10-12T08:26:38.873Z,4780
2018-10-12T08:27:39.641Z,4740
2018-10-12T08:28:40.163Z,4508
2018-10-12T08:29:41.138Z,4828
2018-10-12T08:30:41.207Z,11160
2018-10-12T08:31:42.286Z,5408
2018-10-12T08:32:43.368Z,4820
2018-10-12T08:33:45.695Z,4624
2018-10-12T08:34:44.451Z,6360
2018-10-12T08:35:45.948Z,11796
2018-10-12T08:36:46.041Z,22976
2018-10-12T08:37:47.407Z,30144
2018-10-12T08:38:48.220Z,22944
2018-10-12T08:39:49.022Z,16544
2018-10-12T08:40:50.105Z,4596
2018-10-12T08:41:52.349Z,6572
2018-10-12T08:42:52.084Z,11264
2018-10-12T08:43:52.889Z,13064
2018-10-12T08:44:54.525Z,14656
2018-10-12T08:45:55.206Z,14284
2018-10-12T08:46:55.457Z,6600
2018-10-12T08:47:57.017Z,3852
2018-10-12T08:48:58.876Z,4232
2018-10-12T08:49:59.247Z,4364
2018-10-12T08:51:00.049Z,3764
2018-10-12T08:52:01.204Z,3808
2018-10-12T08:53:01.858Z,3008
2018-10-12T08:54:02.386Z,3240
2018-10-12T08:55:04.021Z,2876
2018-10-12T08:56:03.270Z,2840
2018-10-12T08:57:04.667Z,2824
2018-10-12T08:58:05.226Z,2808
2018-10-12T08:59:05.805Z,2788
2018-10-12T09:00:06.885Z,4984
2018-10-12T09:01:06.688Z,5036
2018-10-12T09:02:08.053Z,2836
2018-10-12T09:03:08.756Z,3592
2018-10-12T09:04:09.398Z,17760
2018-10-12T09:05:10.484Z,39104
2018-10-12T09:06:10.735Z,36544
2018-10-12T09:07:11.544Z,6516
2018-10-12T09:08:13.078Z,2912
2018-10-12T09:09:13.447Z,3556
2018-10-12T09:10:14.533Z,3112
2018-10-12T09:11:14.896Z,3400
2018-10-12T09:12:15.704Z,6408
2018-10-12T09:13:16.227Z,8012
2018-10-12T09:14:18.030Z,4856
2018-10-12T09:15:18.612Z,2904
2018-10-12T09:16:21.081Z,3100
2018-10-12T09:17:21.864Z,5064
2018-10-12T09:18:24.662Z,8532
2018-10-12T09:19:23.530Z,4352
2018-10-12T09:20:24.393Z,2984
2018-10-12T09:21:25.103Z,3304
2018-10-12T09:22:25.629Z,3504
2018-10-12T09:23:26.816Z,6568
2018-10-12T09:24:27.381Z,6236
2018-10-12T09:25:28.466Z,3164
2018-10-12T09:26:29.270Z,2908
2018-10-12T09:27:30.354Z,2916
2018-10-12T09:28:31.450Z,2980
2018-10-12T09:29:32.493Z,4832
2018-10-12T09:30:33.257Z,7584
2018-10-12T09:31:34.305Z,6780
2018-10-12T09:32:35.100Z,3956
2018-10-12T09:33:36.180Z,3220
2018-10-12T09:34:36.706Z,2876
2018-10-12T09:35:38.519Z,2876
2018-10-12T09:36:39.344Z,2888
2018-10-12T09:37:38.596Z,2844
2018-10-12T09:38:39.925Z,2836
2018-10-12T09:39:41.558Z,2872
2018-10-12T09:40:41.081Z,2872
2018-10-12T09:41:42.678Z,2960
2018-10-12T09:42:50.455Z,3220
2018-10-12T09:42:58.417Z,3120
2018-10-12T09:43:57.566Z,2892
2018-10-12T09:44:59.439Z,3984
2018-10-12T09:45:59.242Z,3976
2018-10-12T09:47:03.585Z,2968
2018-10-12T09:47:16.937Z,2992
2018-10-12T09:47:31.352Z,2920
2018-10-12T09:47:43.571Z,2956
2018-10-12T09:47:55.357Z,2944
2018-10-12T09:48:06.274Z,3000
2018-10-12T09:49:04.185Z,7248
2018-10-12T09:50:04.991Z,8732
2018-10-12T09:51:06.099Z,3432
2018-10-12T09:52:08.178Z,3676
2018-10-12T09:53:07.177Z,15456
2018-10-12T09:54:08.044Z,44832
2018-10-12T09:55:08.881Z,53088
2018-10-12T09:56:09.492Z,52352
2018-10-12T09:57:10.300Z,51136
2018-10-12T09:58:11.670Z,49376
2018-10-12T09:59:12.486Z,52032
2018-10-12T10:00:13.672Z,51168
2018-10-12T10:01:14.504Z,50944
2018-10-12T10:02:18.238Z,49280
2018-10-12T10:03:17.269Z,49920
2018-10-12T10:04:16.766Z,51456
2018-10-12T10:05:17.879Z,50720
2018-10-12T10:06:19.601Z,49568
2018-10-12T10:07:19.695Z,49216
2018-10-12T10:08:22.567Z,48864
2018-10-12T10:09:22.043Z,48544
2018-10-12T10:10:22.446Z,47936
2018-10-12T10:11:23.327Z,47712
2018-10-12T10:12:23.588Z,47328
2018-10-12T10:13:24.677Z,47456
2018-10-12T10:14:25.215Z,47296
2018-10-12T10:15:27.877Z,47072
2018-10-12T10:16:26.701Z,46560
2018-10-12T10:17:26.963Z,45536
2018-10-12T10:18:28.053Z,44640
2018-10-12T10:19:29.000Z,44032
2018-10-12T10:20:30.087Z,43648
2018-10-12T10:21:30.899Z,44384
2018-10-12T10:22:34.058Z,44480
2018-10-12T10:23:32.354Z,43648
2018-10-12T10:24:33.810Z,43392
2018-10-12T10:25:34.911Z,43296
2018-10-12T10:26:35.442Z,42976
2018-10-12T10:27:36.811Z,41568
2018-10-12T10:28:38.181Z,41120
2018-10-12T10:29:38.299Z,41120
2018-10-12T10:30:38.834Z,39904
2018-10-12T10:31:40.531Z,31040
2018-10-12T10:32:41.334Z,26336
2018-10-12T10:33:42.147Z,34144
2018-10-12T10:34:42.686Z,31232
2018-10-12T10:35:43.859Z,32416
2018-10-12T10:36:44.419Z,28160
2018-10-12T10:37:45.542Z,23520
2018-10-12T10:38:46.630Z,25984
2018-10-12T10:39:47.623Z,25248
2018-10-12T10:40:48.474Z,23744
2018-10-12T10:41:49.290Z,24544
2018-10-12T10:42:50.660Z,15680
2018-10-12T10:43:50.915Z,10388
2018-10-12T10:44:51.730Z,9980
2018-10-12T10:45:53.443Z,15264
2018-10-12T10:46:53.258Z,14164
2018-10-12T10:47:54.349Z,15200
2018-10-12T10:48:55.007Z,20992
2018-10-12T10:49:55.546Z,22112
2018-10-12T10:50:56.811Z,22208
2018-10-12T10:51:58.739Z,22528
2018-10-12T10:52:58.355Z,22112
2018-10-12T10:53:59.722Z,19584
2018-10-12T10:55:00.535Z,17952
2018-10-12T10:56:00.384Z,12124
2018-10-12T10:57:02.179Z,9616
2018-10-12T10:58:03.587Z,9988
2018-10-12T10:59:04.136Z,14084
2018-10-12T11:00:05.248Z,15360
2018-10-12T11:01:06.262Z,9488
2018-10-12T11:02:08.355Z,18784
2018-10-12T11:03:08.735Z,25472
2018-10-12T11:04:08.992Z,24704
2018-10-12T11:05:09.817Z,22912
2018-10-12T11:06:11.495Z,19360
2018-10-12T11:07:12.746Z,16096
2018-10-12T11:08:14.027Z,10308
2018-10-12T11:09:14.112Z,10832
2018-10-12T11:10:16.220Z,10016
2018-10-12T11:11:16.770Z,17408
2018-10-12T11:12:19.754Z,19808
2018-10-12T11:13:20.109Z,15744
2018-10-12T11:14:20.450Z,13192
2018-10-12T11:15:20.541Z,12860
2018-10-12T11:16:21.911Z,9488
2018-10-12T11:17:23.009Z,9348
2018-10-12T11:18:23.823Z,12108
2018-10-12T11:19:25.004Z,14592
2018-10-12T11:20:25.792Z,13164
2018-10-12T11:21:27.436Z,10980
2018-10-12T11:22:28.318Z,7404
2018-10-12T11:23:29.706Z,7376
2018-10-12T11:24:31.056Z,7292
2018-10-12T11:25:32.168Z,5616
2018-10-12T11:26:33.734Z,5316
2018-10-12T11:27:33.411Z,5268
2018-10-12T11:28:34.294Z,5424
2018-10-12T11:29:35.289Z,5104
2018-10-12T11:30:35.867Z,5876
2018-10-12T11:31:36.500Z,5628
2018-10-12T11:32:37.834Z,5408
2018-10-12T11:33:37.762Z,6764
2018-10-12T11:34:39.189Z,6676
2018-10-12T11:35:40.794Z,7156
2018-10-12T11:36:40.603Z,7328
2018-10-12T11:37:42.349Z,6628
2018-10-12T11:38:43.871Z,5692
2018-10-12T11:39:43.705Z,6192
2018-10-12T11:40:44.418Z,7736
2018-10-12T11:41:45.978Z,8516
2018-10-12T11:42:45.705Z,7336
2018-10-12T11:43:46.517Z,5636
2018-10-12T11:44:47.957Z,5096
2018-10-12T11:45:49.700Z,4852
2018-10-12T11:46:54.072Z,4528
2018-10-12T11:47:02.080Z,4692
2018-10-12T11:48:02.639Z,4584
2018-10-12T11:49:03.485Z,5124
2018-10-12T11:50:04.382Z,5424
2018-10-12T11:51:05.483Z,5124
2018-10-12T11:52:07.834Z,4756
2018-10-12T11:53:07.001Z,5108
2018-10-12T11:54:08.845Z,5360
2018-10-12T11:55:09.070Z,5924
2018-10-12T11:56:09.934Z,5884
2018-10-12T11:57:11.476Z,5640
2018-10-12T11:58:11.773Z,5008
2018-10-12T11:59:12.634Z,5112
2018-10-12T12:00:14.107Z,5740
2018-10-12T12:01:14.638Z,5744
2018-10-12T12:02:15.924Z,5396
2018-10-12T12:03:15.413Z,4960
2018-10-12T12:04:16.498Z,5184
2018-10-12T12:05:17.953Z,5608
2018-10-12T12:06:19.034Z,5252
2018-10-12T12:07:19.518Z,4976
2018-10-12T12:08:19.367Z,5336
2018-10-12T12:09:20.218Z,5708
2018-10-12T12:10:21.606Z,5516
2018-10-12T12:11:21.860Z,5872
2018-10-12T12:12:23.504Z,5720
2018-10-12T12:13:24.649Z,5316
2018-10-12T12:14:24.926Z,5368
2018-10-12T12:15:25.767Z,5464
2018-10-12T12:16:27.124Z,5824
2018-10-12T12:17:27.934Z,6484
2018-10-12T12:18:28.754Z,6692
2018-10-12T12:19:29.963Z,6708
2018-10-12T12:20:30.492Z,6732
2018-10-12T12:21:31.872Z,6800
2018-10-12T12:22:32.679Z,6728
2018-10-12T12:23:34.337Z,6524
2018-10-12T12:24:34.427Z,6664
2018-10-12T12:25:35.769Z,6840
2018-10-12T12:26:36.332Z,6952
2018-10-12T12:27:37.328Z,7008
2018-10-12T12:28:38.160Z,7040
2018-10-12T12:29:38.422Z,7052
2018-10-12T12:30:39.785Z,7084
2018-10-12T12:31:39.877Z,7064
2018-10-12T12:32:40.528Z,7032
2018-10-12T12:33:40.793Z,7016
2018-10-12T12:34:43.985Z,6860
2018-10-12T12:35:48.511Z,6648
2018-10-12T12:35:59.009Z,6672
2018-10-12T12:36:56.582Z,7052
2018-10-12T12:37:57.117Z,7168
2018-10-12T12:38:57.933Z,7280
2018-10-12T12:39:58.467Z,7304
2018-10-12T12:40:59.559Z,7256
2018-10-12T12:42:00.929Z,7052
2018-10-12T12:43:02.027Z,6792
2018-10-12T12:44:03.171Z,6896
2018-10-12T12:45:03.705Z,7232
2018-10-12T12:46:05.435Z,7424
2018-10-12T12:47:06.660Z,7508
2018-10-12T12:48:08.247Z,7532
2018-10-12T12:49:11.074Z,7572
2018-10-12T12:50:09.208Z,7600
2018-10-12T12:51:10.053Z,7584
2018-10-12T12:52:10.865Z,7580
2018-10-12T12:53:11.681Z,7560
2018-10-12T12:54:12.505Z,7560
2018-10-12T12:55:13.598Z,7568
2018-10-12T12:56:15.698Z,7560
2018-10-12T12:57:15.269Z,7556
2018-10-12T12:58:16.162Z,7572
2018-10-12T12:59:16.612Z,7572
2018-10-12T13:00:18.464Z,7560
2018-10-12T13:01:18.418Z,7564
2018-10-12T13:02:18.785Z,7564
2018-10-12T13:03:18.955Z,7532
2018-10-12T13:04:19.272Z,7520
2018-10-12T13:05:20.372Z,7464
2018-10-12T13:06:22.933Z,7432
2018-10-12T13:07:21.899Z,7440
2018-10-12T13:08:23.265Z,7424
2018-10-12T13:09:24.914Z,7412
2018-10-12T13:10:24.746Z,7412
2018-10-12T13:11:26.556Z,7380
2018-10-12T13:12:27.651Z,7400
2018-10-12T13:13:28.500Z,7448
2018-10-12T13:14:29.234Z,7452
2018-10-12T13:15:29.325Z,7464
2018-10-12T13:16:30.583Z,7464
2018-10-12T13:17:31.295Z,7380
2018-10-12T13:18:32.107Z,7296
2018-10-12T13:19:33.363Z,7276
2018-10-12T13:20:34.176Z,7268
2018-10-12T13:21:34.992Z,7344
2018-10-12T13:22:35.529Z,7348
2018-10-12T13:23:37.404Z,7220
2018-10-12T13:24:37.878Z,7316
2018-10-12T13:25:40.212Z,7404
2018-10-12T13:26:40.935Z,7432
2018-10-12T13:27:41.487Z,7444
2018-10-12T13:28:42.576Z,7456
2018-10-12T13:29:43.664Z,7452
